Lake Charles, LA

7:50 AM CDT on July 27, 2016 (GMT -0500)
APRSWXNET | | Change Station

Elev 9 ft 30.22 °N, 93.20 °W | Updated 16 minutes ago

Thunderstorm
Thunderstorm
76 °F
Feels Like 76 °F
N
6
Wind Variable Wind from SW
Gusts 0.0 mph

Today
High -- | Low -- °F
--% Chance of Precip.
Yesterday
High -- | Low -- °F
Precip. -- in
Pressure 29.97 in
Visibility 7.0 miles
Clouds Mostly Cloudy 1800 ft
Mostly Cloudy 3200 ft
Heat Index 76 °F
Dew Point 72 °F
Humidity 88%
Rainfall in
Snow Depth Not available.
6:28 AM 8:09 PM
Last Quarter, 43% visible
METAR KCWF 271155Z 00000KT 7SM TS BKN018 BKN032 25/23 A2997 RMK LTG DSNT SE THRU SW TSB48
Pressure 29.97 in
Visibility 7.0 miles
Clouds Mostly Cloudy 1800 ft
Mostly Cloudy 3200 ft
Heat Index 76 °F
Dew Point 72 °F
Humidity 88%
Rainfall in
Snow Depth Not available.
6:28 AM 8:09 PM
Last Quarter, 43% visible
METAR KCWF 271155Z 00000KT 7SM TS BKN018 BKN032 25/23 A2997 RMK LTG DSNT SE THRU SW TSB48

10-Day Weather Forecast

Almanac

Astronomy

Jul. 27, 2016 Rise Set
Actual Time
Civil Twilight
Nautical Twilight
Astronomical Twilight
Moon
Length of Visible Light
Length of Day
Tomorrow will be .
, % of the Moon is Illuminated

Today's Extremes

State Highs State Lows

Community

WunderPhotos

Upload Photos

1,927,841 photos uploaded!

WunderBlog® & News

Nearby

Air Quality

  Air Quality AQ Index Pollutant
Not available.

Snow Depth

Station Depth Elevation

Earthquake Activity

City Distance Mag. Time & Date
Minimum magnitude displayed is 2.5.

Coastal Water Temperatures

Place Temperature

Stations

Nearby Weather Stations

Station Location Temp. Windchill Dew Point Humidity Wind Precip. Elev Updated Type
                   

Watches & Warnings

There are currently no watches in effect.